Time;durP1;ratioP1;P1;durP2;ratioP2;P2;SDS_P1;SDS_P2;PMS_P1;PMS_P2;Temp;Humidity;BMP_temperature;BMP_pressure;BME280_temperature;BME280_humidity;BME280_pressure;Samples;Min_cycle;Max_cycle;Signal;HPM_P1;HPM_P2
2023/12/21 00:00:04;;;;;;;20.82;9.90;;;;;;;5.55;76.88;99148.72;1725049;83;21098;-63
2023/12/21 00:02:32;;;;;;;20.48;9.43;;;;;;;5.51;77.10;99148.27;1724843;83;21524;-65
2023/12/21 00:05:01;;;;;;;14.95;6.40;;;;;;;5.50;77.26;99152.03;1725120;83;21003;-64
2023/12/21 00:07:30;;;;;;;12.70;6.72;;;;;;;5.47;77.36;99154.30;1725077;83;21095;-65
2023/12/21 00:09:59;;;;;;;12.73;5.92;;;;;;;5.43;77.56;99153.84;1725093;83;21078;-64
2023/12/21 00:12:28;;;;;;;9.65;5.00;;;;;;;5.38;77.79;99144.92;1724767;83;21182;-64
2023/12/21 00:14:56;;;;;;;11.43;6.05;;;;;;;5.35;78.08;99155.34;1696612;83;21485;-64
2023/12/21 00:17:24;;;;;;;15.80;8.23;;;;;;;5.35;78.31;99153.98;1725063;83;21034;-63
2023/12/21 00:19:53;;;;;;;13.20;7.22;;;;;;;5.33;78.37;99168.27;1724923;83;21039;-64
2023/12/21 00:22:23;;;;;;;8.03;4.67;;;;;;;5.31;78.58;99169.83;1724815;83;21078;-64
2023/12/21 00:24:52;;;;;;;9.00;5.00;;;;;;;5.29;78.80;99176.48;1724807;83;21066;-64
2023/12/21 00:27:20;;;;;;;8.33;4.35;;;;;;;5.25;79.02;99171.12;1724868;83;21466;-64
2023/12/21 00:29:48;;;;;;;7.95;4.72;;;;;;;5.23;79.23;99159.09;1724884;83;21102;-64
2023/12/21 00:32:17;;;;;;;6.75;3.65;;;;;;;5.24;79.31;99166.72;1724948;83;21090;-63
2023/12/21 00:34:49;;;;;;;6.12;3.83;;;;;;;5.22;79.45;99160.13;1724881;83;21548;-67
2023/12/21 00:37:16;;;;;;;8.33;3.90;;;;;;;5.21;79.56;99157.09;1719983;83;21097;-64
2023/12/21 00:39:44;;;;;;;6.40;3.52;;;;;;;5.19;79.71;99161.84;1713852;84;21039;-63
2023/12/21 00:42:13;;;;;;;6.37;3.47;;;;;;;5.18;79.83;99166.11;1713985;84;21066;-64
2023/12/21 00:44:43;;;;;;;6.83;4.30;;;;;;;5.17;79.96;99148.97;1713862;84;21527;-65
2023/12/21 00:47:11;;;;;;;5.75;3.15;;;;;;;5.18;80.03;99144.39;1713833;83;21047;-65
2023/12/21 00:49:39;;;;;;;6.50;3.45;;;;;;;5.16;80.00;99143.22;1713854;83;21039;-63
2023/12/21 00:52:08;;;;;;;6.08;3.25;;;;;;;5.17;79.79;99145.42;1714161;83;21158;-65
2023/12/21 00:54:37;;;;;;;4.83;2.98;;;;;;;5.16;79.79;99143.73;1713896;83;21067;-63
2023/12/21 00:57:05;;;;;;;5.37;3.58;;;;;;;5.15;79.66;99145.61;1713911;83;21098;-64
2023/12/21 00:59:36;;;;;;;4.30;2.67;;;;;;;5.14;79.51;99141.22;1714071;83;21043;-64
2023/12/21 01:02:05;;;;;;;5.37;3.45;;;;;;;5.13;79.46;99137.34;1714123;84;21063;-65
2023/12/21 01:04:33;;;;;;;4.35;3.10;;;;;;;5.12;79.37;99139.22;1713752;84;21071;-64
2023/12/21 01:07:03;;;;;;;4.22;2.87;;;;;;;5.10;79.20;99139.41;1713927;83;21066;-64
2023/12/21 01:09:31;;;;;;;4.65;2.40;;;;;;;5.05;78.83;99130.16;1713870;84;21070;-64
2023/12/21 01:12:00;;;;;;;4.30;2.50;;;;;;;5.03;78.76;99130.88;1709437;83;21086;-65
2023/12/21 01:14:29;;;;;;;4.95;2.70;;;;;;;5.01;78.53;99125.64;1714015;83;21067;-65
2023/12/21 01:16:57;;;;;;;3.50;2.20;;;;;;;5.00;78.48;99133.97;1713811;83;21055;-65
2023/12/21 01:19:26;;;;;;;4.03;2.20;;;;;;;5.02;78.48;99137.34;1714032;83;21012;-64
2023/12/21 01:21:55;;;;;;;3.37;2.10;;;;;;;5.02;78.33;99131.39;1713905;84;21051;-65
2023/12/21 01:24:24;;;;;;;2.80;2.20;;;;;;;5.01;78.15;99127.52;1714041;83;20995;-64
2023/12/21 01:26:52;;;;;;;4.17;2.62;;;;;;;4.98;78.13;99127.90;1713818;83;21075;-65
2023/12/21 01:29:21;;;;;;;5.08;3.20;;;;;;;4.96;78.08;99134.04;1713966;84;21443;-64
2023/12/21 01:31:51;;;;;;;3.25;2.10;;;;;;;4.93;78.11;99130.34;1713904;83;21076;-64
2023/12/21 01:34:19;;;;;;;2.92;1.80;;;;;;;4.92;78.08;99140.88;1713802;84;21051;-63
2023/12/21 01:36:48;;;;;;;3.45;2.20;;;;;;;4.92;77.98;99135.45;1714048;83;21071;-64
2023/12/21 01:39:16;;;;;;;3.37;2.10;;;;;;;4.91;77.83;99144.11;1713832;83;21059;-64
2023/12/21 01:41:47;;;;;;;3.58;2.12;;;;;;;4.94;77.70;99142.89;1713852;84;21028;-65
2023/12/21 01:44:16;;;;;;;2.58;2.05;;;;;;;4.95;77.51;99152.71;1713823;84;21510;-63
2023/12/21 01:46:45;;;;;;;3.27;2.10;;;;;;;4.96;77.40;99143.53;1709306;83;21510;-63
2023/12/21 01:49:13;;;;;;;4.05;2.10;;;;;;;4.99;77.38;99147.22;1713838;83;21087;-63
2023/12/21 01:51:43;;;;;;;2.92;1.85;;;;;;;5.02;77.38;99150.91;1713999;84;21078;-64
2023/12/21 01:54:12;;;;;;;4.37;2.52;;;;;;;5.02;77.23;99146.84;1714051;84;21083;-65
2023/12/21 01:56:41;;;;;;;4.00;2.30;;;;;;;5.03;77.00;99141.22;1714028;83;21472;-65
2023/12/21 01:59:09;;;;;;;6.25;2.58;;;;;;;5.04;76.47;99143.41;1713817;83;21479;-64
2023/12/21 02:01:40;;;;;;;4.45;2.45;;;;;;;5.05;76.08;99145.09;1714051;83;21073;-64
2023/12/21 02:04:09;;;;;;;3.92;2.15;;;;;;;5.04;75.46;99142.05;1714025;83;21062;-64
2023/12/21 02:06:39;;;;;;;4.65;2.50;;;;;;;5.03;75.09;99149.88;1714009;84;21063;-64
2023/12/21 02:09:08;;;;;;;3.70;2.17;;;;;;;5.03;74.59;99151.23;1713795;84;21027;-64
2023/12/21 02:11:36;;;;;;;4.42;2.05;;;;;;;5.01;73.72;99141.09;1714055;84;21032;-63
2023/12/21 02:14:05;;;;;;;3.40;1.92;;;;;;;5.00;72.86;99133.45;1713831;83;21077;-64
2023/12/21 02:16:39;;;;;;;4.15;1.70;;;;;;;5.00;72.47;99128.55;1713893;84;21122;-64
2023/12/21 02:19:09;;;;;;;2.30;1.70;;;;;;;4.98;71.95;99130.09;1713928;84;21031;-64
2023/12/21 02:21:38;;;;;;;2.92;1.55;;;;;;;5.00;71.66;99128.55;1713899;84;21459;-64
2023/12/21 02:24:16;;;;;;;2.77;1.70;;;;;;;4.99;71.22;99130.42;1714012;84;21039;-65
2023/12/21 02:26:44;;;;;;;4.03;1.72;;;;;;;5.00;71.36;99119.89;1686035;84;21529;-64
2023/12/21 02:29:13;;;;;;;3.60;1.95;;;;;;;5.03;71.35;99133.07;1714061;84;21090;-63
2023/12/21 02:31:42;;;;;;;3.52;2.10;;;;;;;5.02;71.27;99125.13;1714007;84;21091;-63
2023/12/21 02:34:10;;;;;;;2.83;2.05;;;;;;;5.01;70.98;99120.73;1713853;84;21064;-63
2023/12/21 02:36:39;;;;;;;3.22;2.10;;;;;;;4.99;71.03;99114.66;1714295;84;21051;-64
2023/12/21 02:39:07;;;;;;;8.50;2.62;;;;;;;4.97;71.21;99117.56;1723664;83;21062;-63
2023/12/21 02:41:37;;;;;;;3.67;1.98;;;;;;;4.95;71.36;99118.78;1724798;83;21046;-65
2023/12/21 02:44:05;;;;;;;5.15;2.85;;;;;;;4.92;71.53;99121.89;1724640;83;21059;-64
2023/12/21 02:46:34;;;;;;;3.98;2.80;;;;;;;4.90;71.82;99118.52;1724376;83;22030;-63
2023/12/21 02:49:02;;;;;;;3.87;2.55;;;;;;;4.87;71.75;99122.98;1724412;83;21058;-63
2023/12/21 02:51:31;;;;;;;2.65;1.95;;;;;;;4.82;71.97;99128.14;1724588;83;21078;-64
2023/12/21 02:53:59;;;;;;;5.37;2.87;;;;;;;4.78;72.04;99123.10;1724490;83;21185;-63
2023/12/21 02:56:28;;;;;;;2.60;1.92;;;;;;;4.77;72.10;99123.30;1724483;83;21098;-63
2023/12/21 02:58:56;;;;;;;4.05;2.00;;;;;;;4.74;72.23;99119.61;1724380;83;21066;-63
2023/12/21 03:01:24;;;;;;;6.25;2.45;;;;;;;4.72;72.45;99123.87;1724731;83;21003;-63
2023/12/21 03:03:54;;;;;;;5.12;2.47;;;;;;;4.71;72.68;99120.83;1724430;83;21065;-64
2023/12/21 03:06:23;;;;;;;4.53;2.40;;;;;;;4.70;72.74;99116.95;1724366;83;21106;-63
2023/12/21 03:08:51;;;;;;;3.60;2.45;;;;;;;4.68;72.77;99119.02;1724632;83;21023;-64
2023/12/21 03:11:20;;;;;;;5.35;2.60;;;;;;;4.66;72.80;99114.30;1724672;83;21063;-64
2023/12/21 03:13:48;;;;;;;4.08;2.60;;;;;;;4.62;72.88;99121.14;1724546;83;21090;-64
2023/12/21 03:16:18;;;;;;;3.95;2.50;;;;;;;4.59;72.88;99119.65;1724368;83;21031;-66
2023/12/21 03:18:47;;;;;;;4.95;2.05;;;;;;;4.57;72.79;99118.16;1724366;83;21066;-63
2023/12/21 03:21:15;;;;;;;4.03;2.10;;;;;;;4.53;72.76;99114.95;1724275;83;21490;-63
2023/12/21 03:23:44;;;;;;;4.30;2.40;;;;;;;4.53;72.71;99114.11;1724574;83;21106;-63
2023/12/21 03:26:13;;;;;;;5.00;2.17;;;;;;;4.50;72.51;99109.91;1724513;83;21050;-63
2023/12/21 03:28:44;;;;;;;3.72;2.40;;;;;;;4.47;72.53;99104.87;1724425;83;21086;-64
2023/12/21 03:31:18;;;;;;;6.30;3.25;;;;;;;4.46;72.48;99105.90;1724410;83;21525;-65
2023/12/21 03:33:47;;;;;;;5.35;3.00;;;;;;;4.44;72.44;99102.02;1703235;83;21482;-64
2023/12/21 03:36:17;;;;;;;7.15;3.02;;;;;;;4.40;72.44;99099.36;1724430;83;21099;-65
2023/12/21 03:38:45;;;;;;;8.73;3.65;;;;;;;4.37;72.49;99099.75;1717406;83;21134;-62
2023/12/21 03:41:14;;;;;;;14.53;4.80;;;;;;;4.33;72.51;99102.52;1713940;84;21118;-64
2023/12/21 03:43:42;;;;;;;12.60;4.55;;;;;;;4.30;72.48;99098.83;1714191;83;21095;-63
2023/12/21 03:46:11;;;;;;;14.50;4.87;;;;;;;4.30;72.58;99097.98;1713988;83;21024;-64
2023/12/21 03:48:39;;;;;;;12.20;5.37;;;;;;;4.30;72.59;99112.89;1713907;83;21043;-63
2023/12/21 03:51:08;;;;;;;15.80;6.87;;;;;;;4.25;72.62;99098.55;1713831;83;21035;-63
2023/12/21 03:53:37;;;;;;;17.20;7.12;;;;;;;4.23;72.75;99097.90;1714129;84;21051;-62
2023/12/21 03:56:07;;;;;;;22.50;8.50;;;;;;;4.21;72.90;99104.02;1714100;84;21023;-64
2023/12/21 03:58:39;;;;;;;20.70;7.95;;;;;;;4.21;72.98;99100.47;1714103;84;21083;-62
2023/12/21 04:01:07;;;;;;;28.05;9.60;;;;;;;4.20;73.01;99100.98;1713928;84;21071;-63
2023/12/21 04:03:36;;;;;;;25.05;9.00;;;;;;;4.16;73.07;99101.04;1713869;83;21051;-62
2023/12/21 04:06:05;;;;;;;26.77;9.85;;;;;;;4.14;73.25;99110.72;1714024;84;21031;-64
2023/12/21 04:08:34;;;;;;;27.52;8.58;;;;;;;4.12;73.26;99107.35;1713804;83;21516;-65
2023/12/21 04:11:02;;;;;;;18.67;7.28;;;;;;;4.08;73.32;99113.34;1713930;83;21032;-64
2023/12/21 04:13:31;;;;;;;18.02;6.45;;;;;;;4.08;73.55;99117.40;1713992;83;21035;-64
2023/12/21 04:16:00;;;;;;;14.10;6.35;;;;;;;4.06;73.66;99113.52;1714198;84;21067;-63
2023/12/21 04:18:30;;;;;;;11.20;4.58;;;;;;;4.01;73.72;99117.31;1714105;84;21028;-64
2023/12/21 04:20:59;;;;;;;8.55;3.92;;;;;;;3.97;73.87;99113.81;1713847;84;21031;-65
2023/12/21 04:23:29;;;;;;;6.83;3.90;;;;;;;3.91;74.06;99118.11;1714095;83;21051;-66
2023/12/21 04:25:57;;;;;;;8.30;4.20;;;;;;;3.85;74.35;99117.47;1709174;84;21051;-65
2023/12/21 04:28:26;;;;;;;7.67;3.98;;;;;;;3.82;74.48;99122.74;1713818;83;21043;-65
2023/12/21 04:30:55;;;;;;;7.25;4.00;;;;;;;3.77;74.71;99127.03;1714096;84;21131;-65
2023/12/21 04:33:23;;;;;;;7.03;4.03;;;;;;;3.72;74.98;99123.53;1709374;83;21086;-66
2023/12/21 04:35:52;;;;;;;7.83;4.00;;;;;;;3.66;75.30;99125.63;1713931;84;21556;-63
2023/12/21 04:38:21;;;;;;;7.55;4.37;;;;;;;3.66;75.53;99124.78;1717845;83;21094;-65
2023/12/21 04:40:50;;;;;;;6.97;3.92;;;;;;;3.65;75.61;99123.09;1725089;83;20999;-63
2023/12/21 04:43:18;;;;;;;7.78;4.70;;;;;;;3.64;75.70;99125.48;1697007;83;21346;-63
2023/12/21 04:45:47;;;;;;;9.80;5.17;;;;;;;3.60;75.89;99122.81;1724888;83;21030;-64
2023/12/21 04:48:15;;;;;;;10.60;5.20;;;;;;;3.56;76.30;99121.50;1725008;83;21026;-65
2023/12/21 04:50:44;;;;;;;10.08;5.33;;;;;;;3.56;76.68;99125.56;1724931;83;21059;-63
2023/12/21 04:53:13;;;;;;;7.78;4.25;;;;;;;3.57;76.73;99124.53;1724806;83;21520;-64
2023/12/21 04:55:41;;;;;;;8.68;4.25;;;;;;;3.50;76.68;99129.84;1725035;83;21054;-64
2023/12/21 04:58:11;;;;;;;9.65;4.70;;;;;;;3.38;76.74;99131.31;1724912;83;21071;-64
2023/12/21 05:00:40;;;;;;;13.70;6.30;;;;;;;3.29;76.99;99131.89;1725089;83;21038;-65
2023/12/21 05:03:09;;;;;;;9.28;5.97;;;;;;;3.23;77.41;99127.69;1725063;83;21109;-63
2023/12/21 05:05:38;;;;;;;11.88;5.40;;;;;;;3.22;77.87;99131.42;1725030;83;20995;-65
2023/12/21 05:08:07;;;;;;;7.67;5.00;;;;;;;3.23;78.26;99131.23;1724754;83;21482;-66
2023/12/21 05:10:36;;;;;;;10.03;4.95;;;;;;;3.26;78.58;99131.42;1696891;83;21046;-63
2023/12/21 05:13:05;;;;;;;10.43;4.25;;;;;;;3.28;78.93;99129.38;1724837;83;21479;-63
2023/12/21 05:15:33;;;;;;;10.70;5.20;;;;;;;3.31;79.21;99143.38;1724848;83;21574;-65
2023/12/21 05:18:02;;;;;;;9.65;4.70;;;;;;;3.31;79.05;99140.67;1725025;83;21023;-63
2023/12/21 05:20:32;;;;;;;9.75;4.50;;;;;;;3.24;78.94;99134.27;1725005;83;21070;-65
2023/12/21 05:23:01;;;;;;;29.05;10.48;;;;;;;3.18;78.90;99139.06;1724861;83;21467;-65
2023/12/21 05:25:30;;;;;;;53.95;18.27;;;;;;;3.08;78.97;99139.81;1725003;83;21466;-64
2023/12/21 05:27:59;;;;;;;44.15;15.48;;;;;;;3.00;79.17;99139.36;1725041;83;21035;-65
2023/12/21 05:30:27;;;;;;;27.48;10.28;;;;;;;2.96;79.59;99136.69;1724956;83;21090;-65
2023/12/21 05:32:56;;;;;;;16.37;7.83;;;;;;;3.00;79.95;99130.41;1720149;83;21589;-64
2023/12/21 05:35:25;;;;;;;11.03;5.60;;;;;;;3.03;80.27;99132.75;1720148;83;21074;-63
2023/12/21 05:37:54;;;;;;;10.93;5.55;;;;;;;3.03;80.41;99131.40;1724317;83;21003;-65
2023/12/21 05:40:23;;;;;;;10.23;5.72;;;;;;;3.05;80.69;99130.20;1713800;83;21040;-64
2023/12/21 05:42:51;;;;;;;9.93;5.08;;;;;;;3.06;80.82;99129.69;1713841;84;21067;-64
2023/12/21 05:45:20;;;;;;;10.38;5.20;;;;;;;3.07;81.08;99130.02;1713959;83;21494;-64
2023/12/21 05:47:49;;;;;;;11.18;5.90;;;;;;;3.09;81.21;99132.03;1713784;83;21413;-64
2023/12/21 05:50:18;;;;;;;9.55;5.20;;;;;;;3.08;81.33;99137.11;1714066;83;21003;-65
2023/12/21 05:52:46;;;;;;;10.18;5.12;;;;;;;3.07;81.50;99132.20;1709469;83;21492;-65
2023/12/21 05:55:15;;;;;;;10.53;6.35;;;;;;;3.05;81.54;99138.83;1713869;83;21054;-65
2023/12/21 05:57:45;;;;;;;10.90;5.50;;;;;;;3.02;81.74;99127.02;1709379;83;21067;-65
2023/12/21 06:00:15;;;;;;;12.78;5.83;;;;;;;2.98;81.83;99134.65;1709278;83;21083;-64
2023/12/21 06:02:43;;;;;;;9.55;5.47;;;;;;;2.98;82.05;99132.45;1714138;84;21107;-64
2023/12/21 06:05:12;;;;;;;8.50;5.42;;;;;;;2.99;82.10;99127.38;1709323;83;21051;-64
2023/12/21 06:07:41;;;;;;;15.10;5.50;;;;;;;3.01;82.27;99135.64;1713918;83;21051;-64
2023/12/21 06:10:10;;;;;;;10.45;5.40;;;;;;;3.05;82.29;99131.55;1714070;84;21031;-64
2023/12/21 06:12:39;;;;;;;9.60;5.58;;;;;;;3.08;82.33;99135.75;1713914;83;21019;-64
2023/12/21 06:15:08;;;;;;;10.58;6.35;;;;;;;3.07;82.36;99136.78;1714051;84;21044;-65
2023/12/21 06:17:37;;;;;;;10.00;5.97;;;;;;;3.06;82.36;99136.45;1714071;84;21095;-64
2023/12/21 06:20:07;;;;;;;11.68;5.87;;;;;;;3.05;82.41;99139.66;1714047;83;21035;-65
2023/12/21 06:22:36;;;;;;;13.98;6.80;;;;;;;3.04;82.27;99138.49;1713887;83;21051;-65
2023/12/21 06:25:06;;;;;;;13.20;6.30;;;;;;;3.01;82.40;99138.34;1713988;83;21016;-65
2023/12/21 06:27:35;;;;;;;12.07;5.53;;;;;;;3.03;82.49;99144.92;1714050;84;21072;-66
2023/12/21 06:30:05;;;;;;;15.18;6.33;;;;;;;3.05;82.61;99138.31;1713931;83;21115;-64
2023/12/21 06:32:34;;;;;;;13.60;7.35;;;;;;;3.08;82.71;99147.93;1713757;84;21592;-66
2023/12/21 06:35:04;;;;;;;14.15;6.37;;;;;;;3.09;82.67;99154.52;1714029;84;21116;-65
2023/12/21 06:37:33;;;;;;;11.03;6.20;;;;;;;3.08;82.57;99162.81;1714021;83;21059;-66
2023/12/21 06:40:04;;;;;;;12.45;6.15;;;;;;;3.05;82.71;99170.78;1722098;83;21101;-65
2023/12/21 06:42:34;;;;;;;13.75;7.53;;;;;;;3.05;82.99;99174.84;1724501;83;21055;-65
2023/12/21 06:45:04;;;;;;;24.92;9.03;;;;;;;3.09;83.20;99174.81;1724615;83;21011;-65
2023/12/21 06:47:34;;;;;;;20.55;7.95;;;;;;;3.14;83.18;99162.09;1724534;83;21074;-65
2023/12/21 06:50:06;;;;;;;19.15;7.75;;;;;;;3.17;83.05;99156.32;1724317;83;21071;-66
2023/12/21 06:52:35;;;;;;;20.35;9.48;;;;;;;3.18;83.07;99158.84;1724255;83;21078;-65
2023/12/21 06:55:05;;;;;;;19.75;8.65;;;;;;;3.21;83.14;99156.29;1724566;83;21070;-64
2023/12/21 06:57:34;;;;;;;16.07;8.00;;;;;;;3.23;83.21;99163.72;1724590;83;21074;-65
2023/12/21 07:00:06;;;;;;;17.95;7.60;;;;;;;3.25;83.36;99164.89;1724291;83;21333;-65
2023/12/21 07:02:36;;;;;;;17.32;6.87;;;;;;;3.29;83.55;99167.59;1724450;83;21082;-66
2023/12/21 07:05:06;;;;;;;18.23;7.67;;;;;;;3.30;83.53;99162.51;1724287;83;21086;-65
2023/12/21 07:07:34;;;;;;;18.15;7.72;;;;;;;3.30;83.56;99160.64;1724605;83;21423;-65
2023/12/21 07:10:03;;;;;;;18.52;7.80;;;;;;;3.31;83.58;99162.33;1724449;83;21079;-66
2023/12/21 07:12:33;;;;;;;13.22;7.17;;;;;;;3.32;83.66;99169.42;1724213;83;21054;-65
2023/12/21 07:15:03;;;;;;;14.30;7.08;;;;;;;3.34;83.62;99172.80;1702461;83;21035;-66
2023/12/21 07:17:33;;;;;;;19.52;7.92;;;;;;;3.36;83.69;99173.45;1724330;83;20999;-65
2023/12/21 07:20:01;;;;;;;21.77;9.15;;;;;;;3.38;83.79;99163.28;1724373;83;21296;-65
2023/12/21 07:22:30;;;;;;;21.00;8.63;;;;;;;3.42;83.83;99174.59;1724344;83;21102;-65
2023/12/21 07:25:00;;;;;;;17.57;8.93;;;;;;;3.45;83.78;99166.94;1724467;83;21462;-65
2023/12/21 07:27:28;;;;;;;16.65;9.05;;;;;;;3.47;83.71;99165.41;1724644;83;21054;-66
2023/12/21 07:29:59;;;;;;;18.90;8.98;;;;;;;3.47;83.75;99159.99;1724762;83;21137;-64
2023/12/21 07:32:29;;;;;;;18.27;8.55;;;;;;;3.48;83.80;99163.88;1724488;83;21474;-66
2023/12/21 07:34:58;;;;;;;18.55;8.60;;;;;;;3.48;83.75;99161.16;1724359;83;21481;-65
2023/12/21 07:37:27;;;;;;;22.75;9.78;;;;;;;3.48;83.87;99166.58;1724301;83;21062;-66
2023/12/21 07:39:56;;;;;;;15.30;8.80;;;;;;;3.52;83.97;99167.56;1695451;84;21056;-66
2023/12/21 07:42:28;;;;;;;20.52;10.65;;;;;;;3.53;83.97;99168.73;1689871;85;21046;-65
2023/12/21 07:44:57;;;;;;;19.77;10.30;;;;;;;3.56;84.08;99162.95;1702629;84;21412;-65
2023/12/21 07:47:26;;;;;;;22.67;12.25;;;;;;;3.60;84.21;99160.21;1689945;85;21453;-65
2023/12/21 07:49:55;;;;;;;19.32;10.82;;;;;;;3.65;84.32;99162.37;1702352;84;21032;-65
2023/12/21 07:52:25;;;;;;;21.85;11.78;;;;;;;3.67;84.23;99165.22;1689960;85;21677;-65
2023/12/21 07:54:54;;;;;;;21.15;10.82;;;;;;;3.69;84.25;99159.62;1702394;84;21506;-65
2023/12/21 07:57:23;;;;;;;18.92;10.65;;;;;;;3.71;84.36;99161.12;1689998;85;21064;-64
2023/12/21 07:59:53;;;;;;;20.30;9.38;;;;;;;3.72;84.40;99149.77;1673266;84;21081;-65
2023/12/21 08:02:21;;;;;;;17.77;9.80;;;;;;;3.76;84.57;99146.51;1689913;85;21009;-65
2023/12/21 08:04:51;;;;;;;17.52;10.23;;;;;;;3.82;84.69;99153.05;1673072;84;21028;-66
2023/12/21 08:07:19;;;;;;;19.27;9.10;;;;;;;3.87;84.67;99151.98;1663217;85;21057;-65
2023/12/21 08:09:48;;;;;;;16.12;8.73;;;;;;;3.91;84.54;99156.55;1702485;84;21476;-65
2023/12/21 08:12:17;;;;;;;18.77;9.38;;;;;;;3.95;84.51;99149.22;1685598;84;21473;-66
2023/12/21 08:14:45;;;;;;;17.15;8.58;;;;;;;4.01;84.50;99147.13;1702608;84;21031;-65
2023/12/21 08:17:17;;;;;;;17.32;8.40;;;;;;;4.07;84.51;99143.66;1685460;84;21001;-64
2023/12/21 08:19:44;;;;;;;14.15;8.85;;;;;;;4.14;84.32;99144.59;1702356;84;21076;-65
2023/12/21 08:22:13;;;;;;;15.95;8.73;;;;;;;4.17;84.14;99140.67;1690015;84;21067;-65
2023/12/21 08:24:42;;;;;;;20.72;9.33;;;;;;;4.21;84.00;99141.13;1702345;84;21492;-66
2023/12/21 08:27:11;;;;;;;17.82;8.80;;;;;;;4.29;84.05;99138.33;1685631;84;21052;-65
2023/12/21 08:29:40;;;;;;;17.95;9.45;;;;;;;4.38;84.03;99129.90;1695880;84;21100;-63
2023/12/21 08:32:08;;;;;;;19.27;9.55;;;;;;;4.47;83.70;99129.28;1685426;84;21056;-65
2023/12/21 08:34:37;;;;;;;24.50;9.73;;;;;;;4.56;83.56;99119.19;1702607;84;21008;-65
2023/12/21 08:37:07;;;;;;;23.67;11.08;;;;;;;4.62;82.96;99118.42;1689969;85;21463;-64
2023/12/21 08:39:36;;;;;;;21.62;11.97;;;;;;;4.66;82.65;99115.66;1710212;83;21063;-65
2023/12/21 08:42:08;;;;;;;24.43;12.23;;;;;;;4.66;82.01;99106.16;1724463;83;21079;-65
2023/12/21 08:44:41;;;;;;;21.97;10.88;;;;;;;4.64;81.89;99106.35;1724485;83;21086;-65
2023/12/21 08:47:10;;;;;;;20.75;11.43;;;;;;;4.64;81.55;99099.57;1724504;83;21090;-65
2023/12/21 08:49:39;;;;;;;20.65;10.25;;;;;;;4.64;81.55;99098.22;1702412;82;21447;-65
2023/12/21 08:52:09;;;;;;;19.92;9.50;;;;;;;4.65;81.48;99093.11;1702495;82;21050;-65
2023/12/21 08:54:38;;;;;;;24.37;10.50;;;;;;;4.66;81.43;99089.37;1702038;83;21102;-65
2023/12/21 08:57:13;;;;;;;18.62;9.90;;;;;;;4.72;81.29;99087.76;1734402;81;21062;-67
2023/12/21 08:59:48;;;;;;;22.07;9.08;;;;;;;4.77;81.15;99082.08;1722709;80;21063;-67
2023/12/21 09:02:37;;;;;;;129.57;68.07;;;;;;;4.81;80.50;99083.05;1785170;80;21028;-66
2023/12/21 09:05:12;;;;;;;21.65;9.78;;;;;;;4.84;80.34;99079.95;1781414;80;21102;-66
2023/12/21 09:07:41;;;;;;;17.30;8.75;;;;;;;4.85;79.73;99074.33;1784059;80;21055;-66
2023/12/21 09:10:10;;;;;;;17.85;8.53;;;;;;;4.87;79.65;99074.13;1785494;80;21043;-64
2023/12/21 09:12:39;;;;;;;20.57;8.80;;;;;;;4.89;79.25;99077.49;1761505;80;21051;-65
2023/12/21 09:15:09;;;;;;;23.77;9.03;;;;;;;4.90;79.03;99076.46;1786094;80;21071;-65
2023/12/21 09:17:37;;;;;;;19.77;9.05;;;;;;;4.95;78.74;99063.15;1788260;80;21023;-67
2023/12/21 09:20:13;;;;;;;24.65;9.75;;;;;;;4.96;78.46;99065.67;1788151;80;21492;-65
2023/12/21 09:22:42;;;;;;;26.80;10.45;;;;;;;4.98;78.41;99055.45;1788513;80;20987;-63
2023/12/21 09:25:11;;;;;;;20.05;9.33;;;;;;;5.01;78.27;99052.87;1788441;80;20996;-64
2023/12/21 09:27:40;;;;;;;19.82;8.78;;;;;;;5.05;77.99;99054.16;1788455;80;21055;-65
2023/12/21 09:30:09;;;;;;;17.75;8.98;;;;;;;5.03;78.14;99049.44;1788451;80;21536;-65
2023/12/21 09:32:41;;;;;;;25.45;9.05;;;;;;;5.07;77.77;99046.66;1787067;80;21039;-64
2023/12/21 09:35:11;;;;;;;17.95;8.18;;;;;;;5.10;77.67;99048.47;1785237;80;21024;-65
2023/12/21 09:37:40;;;;;;;22.70;9.13;;;;;;;5.15;77.58;99041.09;1785253;80;21063;-64
2023/12/21 09:40:10;;;;;;;18.98;8.75;;;;;;;5.17;76.48;99045.80;1780551;80;21063;-65
2023/12/21 09:42:44;;;;;;;19.50;8.85;;;;;;;5.13;76.51;99049.95;1745952;81;21491;-65
2023/12/21 09:45:15;;;;;;;28.47;8.33;;;;;;;5.11;76.45;99042.52;1775491;80;21023;-66
2023/12/21 09:47:44;;;;;;;20.62;8.65;;;;;;;5.08;76.29;99045.63;1775458;80;20987;-65
2023/12/21 09:50:20;;;;;;;17.15;8.50;;;;;;;5.07;76.35;99043.42;1775168;81;21448;-65
2023/12/21 09:52:49;;;;;;;24.52;8.95;;;;;;;5.09;76.24;99026.94;1775157;81;21075;-63
2023/12/21 09:55:18;;;;;;;20.35;8.00;;;;;;;5.12;75.97;99028.42;1745854;81;21094;-64
2023/12/21 09:57:47;;;;;;;33.18;9.40;;;;;;;5.16;76.09;99018.34;1775174;80;21058;-65
2023/12/21 10:00:16;;;;;;;16.85;7.58;;;;;;;5.22;76.18;99012.66;1775233;81;21506;-64
2023/12/21 10:02:45;;;;;;;14.73;7.75;;;;;;;5.29;76.56;99017.11;1775211;81;21518;-65
2023/12/21 10:05:16;;;;;;;22.35;9.25;;;;;;;5.37;76.00;99021.03;1775333;81;21071;-66
2023/12/21 10:07:45;;;;;;;17.65;8.08;;;;;;;5.38;75.63;99017.28;1771501;80;21052;-65
2023/12/21 10:10:17;;;;;;;13.60;7.62;;;;;;;5.43;75.52;99012.61;1757256;80;21068;-64
2023/12/21 10:12:45;;;;;;;17.42;6.42;;;;;;;5.46;74.94;99005.42;1757381;81;21092;-64
2023/12/21 10:15:17;;;;;;;15.72;7.80;;;;;;;5.44;73.98;99004.78;1757191;81;21081;-66
2023/12/21 10:17:47;;;;;;;18.42;7.25;;;;;;;5.44;73.82;98997.98;1709018;81;21143;-64
2023/12/21 10:20:16;;;;;;;21.65;7.08;;;;;;;5.46;73.89;98994.55;1757406;80;21076;-65
2023/12/21 10:22:45;;;;;;;13.80;7.28;;;;;;;5.49;73.54;98996.03;1757443;80;21044;-64
2023/12/21 10:25:14;;;;;;;19.40;7.08;;;;;;;5.51;73.71;99000.23;1757376;80;21091;-66
2023/12/21 10:27:55;;;;;;;22.73;7.70;;;;;;;5.56;73.73;98996.39;1757702;81;21092;-64
2023/12/21 10:30:24;;;;;;;12.73;5.83;;;;;;;5.63;73.74;99002.70;1757555;81;21076;-64
2023/12/21 10:32:56;;;;;;;15.32;7.17;;;;;;;5.70;73.06;99001.38;1757682;81;21056;-65
2023/12/21 10:35:27;;;;;;;13.83;6.10;;;;;;;5.67;72.38;98998.55;1757331;80;21100;-65
2023/12/21 10:37:57;;;;;;;13.93;6.28;;;;;;;5.65;72.03;98998.42;1757517;81;21068;-66
2023/12/21 10:40:26;;;;;;;15.95;6.12;;;;;;;5.61;71.81;98995.27;1760220;80;21016;-64
2023/12/21 10:42:56;;;;;;;11.30;5.70;;;;;;;5.59;71.91;98994.63;1760080;80;21244;-64
2023/12/21 10:45:28;;;;;;;17.80;6.33;;;;;;;5.60;72.21;98990.88;1788001;80;21106;-65
2023/12/21 10:48:02;;;;;;;13.13;5.42;;;;;;;5.64;72.35;98989.44;1787931;80;21610;-66
2023/12/21 10:50:31;;;;;;;12.65;6.00;;;;;;;5.68;72.01;98989.88;1788169;80;21011;-65
2023/12/21 10:53:00;;;;;;;15.70;7.10;;;;;;;5.65;71.40;98978.05;1788140;80;21023;-65
2023/12/21 10:55:29;;;;;;;20.72;8.20;;;;;;;5.61;71.43;98973.53;1787987;80;21486;-64
2023/12/21 10:58:00;;;;;;;14.20;7.00;;;;;;;5.59;71.58;98969.34;1788175;80;21019;-63
2023/12/21 11:00:34;;;;;;;11.83;5.97;;;;;;;5.57;71.76;98979.05;1788357;80;21074;-66
2023/12/21 11:03:07;;;;;;;14.35;6.05;;;;;;;5.57;71.92;98966.83;1788180;80;21098;-66
2023/12/21 11:05:36;;;;;;;12.00;5.50;;;;;;;5.59;71.64;98962.55;1788007;80;21059;-65
2023/12/21 11:08:06;;;;;;;13.48;7.50;;;;;;;5.57;71.74;98956.48;1696043;83;21551;-65
2023/12/21 11:10:35;;;;;;;16.62;8.18;;;;;;;5.58;71.61;98959.52;1724215;83;21059;-65
2023/12/21 11:13:04;;;;;;;17.98;7.53;;;;;;;5.58;71.64;98956.80;1724130;83;21642;-67
2023/12/21 11:15:33;;;;;;;13.28;7.20;;;;;;;5.60;71.70;98964.23;1724324;83;21066;-65
2023/12/21 11:18:09;;;;;;;17.00;6.55;;;;;;;5.59;71.51;98951.16;1724336;83;21003;-65
2023/12/21 11:20:50;;;;;;;25.00;7.55;;;;;;;5.59;71.03;98950.33;1724381;83;21113;-66
2023/12/21 11:23:21;;;;;;;12.68;6.75;;;;;;;5.57;70.99;98946.45;1722923;83;21081;-66
2023/12/21 11:25:57;;;;;;;17.23;7.92;;;;;;;5.55;70.77;98943.62;1730410;80;21096;-63
2023/12/21 11:28:28;;;;;;;18.80;6.75;;;;;;;5.50;70.77;98934.72;1696090;83;21475;-64
2023/12/21 11:30:57;;;;;;;18.07;7.08;;;;;;;5.47;71.02;98941.07;1724221;83;21536;-65
2023/12/21 11:33:29;;;;;;;20.12;7.20;;;;;;;5.47;71.35;98928.84;1724004;83;21123;-66
2023/12/21 11:35:59;;;;;;;17.52;7.22;;;;;;;5.49;71.76;98930.84;1724238;83;21114;-66
2023/12/21 11:38:47;;;;;;;22.37;7.03;;;;;;;5.49;71.70;98930.33;1724285;83;21544;-64
2023/12/21 11:41:18;;;;;;;17.27;7.72;;;;;;;5.48;72.03;98930.52;1683289;84;21068;-65
2023/12/21 11:44:02;;;;;;;17.73;8.25;;;;;;;5.46;72.12;98927.17;1696382;83;21050;-65
2023/12/21 11:46:33;;;;;;;19.10;7.83;;;;;;;5.45;72.64;98922.78;1714588;83;21471;-65